Kvb Empire — PD5101 — position and weather

sailwx.info

Track history (hours):
 
Tides and Currents Weather Stations Pressure Air Temp Water Temp Dewpoint Dewpoint Depression Visibility Wind Speed Wind Dir Waves Ship Positions

Kvb Empire

Last reported at 2016-Jul-22 16:27 UTC. Time now 2016-Jul-23 09:20 UTC.
Position N 48°58' E 008°12'.

Length 183 m; draft 3.6 m.

Type: Ship. MMSI: 244670090.

Date/timePositionNaut miles runAvg speedWind from/ knotsBaromVisibWave heightAir tempDewpointWater temp
2016-Jul-22 16:27N 48°58' E 008°12'5 5.3
2016-Jul-22 15:33N 49°01' E 008°18'5 5.5
2016-Jul-22 14:33N 49°06' E 008°21'5 5.5
2016-Jul-22 13:33N 49°11' E 008°23'6 5.5
2016-Jul-22 12:33N 49°16' E 008°27'5 4.3
2016-Jul-22 11:29N 49°20' E 008°28'  
2016-Jul-20 06:33N 50°43' E 007°07'5 4.4
2016-Jul-20 05:30N 50°47' E 007°03'4 3.9
2016-Jul-20 04:33N 50°50' E 006°59'4 3.9
2016-Jul-20 03:25N 50°53' E 007°03'3 3.8
2016-Jul-20 02:32N 50°55' E 006°58'4 4.1
2016-Jul-20 01:33N 50°59' E 006°59'9 3.6
2016-Jul-19 23:04N 51°07' E 006°52'3 3.9
2016-Jul-19 22:25N 51°10' E 006°51'2 2.7
2016-Jul-19 21:33N 51°10' E 006°48'3 3.2
2016-Jul-19 20:33N 51°12' E 006°44'2 2.3
2016-Jul-19 19:33N 51°13' E 006°46'18 3.0
2016-Jul-19 13:29N 51°31' E 006°42'7 3.7
2016-Jul-19 11:33N 51°37' E 006°35'4 3.4
2016-Jul-19 10:32N 51°40' E 006°31'26 4.2
2016-Jul-19 04:27N 51°52' E 005°55'4 4.7
2016-Jul-19 03:32N 51°52' E 005°48'7 6.2
2016-Jul-19 02:24N 51°54' E 005°37'8 5.8
2016-Jul-19 01:06N 51°52' E 005°25'3 6.1
2016-Jul-19 00:33N 51°49' E 005°22'4 4.1
2016-Jul-18 23:33N 51°49' E 005°16'9 5.8
2016-Jul-18 22:04N 51°49' E 005°02'4 7.1
2016-Jul-18 21:33N 51°50' E 004°56'7 6.8
2016-Jul-18 20:33N 51°49' E 004°45'6 5.9
2016-Jul-18 19:33N 51°53' E 004°38'5 5.4
2016-Jul-18 18:33N 51°55' E 004°29'7 6.6
2016-Jul-18 17:33N 51°54' E 004°19'2 1.5
2016-Jul-18 16:33N 51°53' E 004°16'0 0.0
2016-Jul-18 15:33N 51°53' E 004°16'0 0.0
2016-Jul-18 14:33N 51°53' E 004°16'0 0.0
2016-Jul-18 13:33N 51°53' E 004°16'0 0.0
2016-Jul-18 12:33N 51°53' E 004°16'0 0.0
2016-Jul-18 11:33N 51°53' E 004°16'0 0.0
2016-Jul-18 10:33N 51°53' E 004°16'0 0.0
2016-Jul-18 09:33N 51°53' E 004°16'0 0.1
2016-Jul-18 08:33N 51°53' E 004°16'0 0.0
2016-Jul-18 07:33N 51°53' E 004°16'0 0.0
2016-Jul-18 06:33N 51°53' E 004°16'0 0.0
2016-Jul-18 05:33N 51°53' E 004°16'0 0.0
2016-Jul-18 04:33N 51°53' E 004°16'0 0.0
2016-Jul-18 03:33N 51°53' E 004°16'0 0.0
2016-Jul-18 02:33N 51°53' E 004°16'0 0.0
2016-Jul-18 01:33N 51°53' E 004°16'0 0.0
2016-Jul-18 00:33N 51°53' E 004°16'0 0.0
2016-Jul-17 23:33N 51°53' E 004°16'0 0.0
2016-Jul-17 22:33N 51°53' E 004°16'0 0.0
2016-Jul-17 21:33N 51°53' E 004°16'2 2.0
2016-Jul-17 20:33N 51°54' E 004°20'7 7.1
2016-Jul-17 19:33N 51°54' E 004°31'1 0.7
2016-Jul-17 18:33N 51°54' E 004°32'7 7.5
2016-Jul-17 17:33N 51°54' E 004°44'8 7.4
2016-Jul-17 16:32N 51°57' E 004°56'6 6.0
2016-Jul-17 15:33N 51°60' E 005°04'3 2.8
2016-Jul-17 14:33N 52°02' E 005°07'3 2.6
2016-Jul-17 13:33N 52°05' E 005°05'0 0.0
2016-Jul-17 12:32N 52°05' E 005°05'0 0.0
2016-Jul-17 11:32N 52°05' E 005°05'0 0.0
2016-Jul-17 10:31N 52°05' E 005°05'0 0.0
2016-Jul-17 09:33N 52°05' E 005°05'0 0.0
2016-Jul-17 08:24N 52°05' E 005°05'0 0.0
2016-Jul-17 06:32N 52°05' E 005°05'0 0.0
2016-Jul-17 04:33N 52°05' E 005°05'0 0.0
2016-Jul-17 03:33N 52°05' E 005°05'0 0.0
2016-Jul-17 02:33N 52°05' E 005°05'0 0.0
2016-Jul-17 01:33N 52°05' E 005°05'0 0.0
2016-Jul-17 00:33N 52°05' E 005°05'0 0.0
2016-Jul-16 23:33N 52°05' E 005°05'0 0.0
2016-Jul-16 22:33N 52°05' E 005°05'0 0.0
2016-Jul-16 21:32N 52°05' E 005°05'0 0.0
2016-Jul-16 20:32N 52°05' E 005°05'0 0.0
2016-Jul-16 19:32N 52°05' E 005°05'0 0.0
2016-Jul-16 18:33N 52°05' E 005°05'0 0.0
2016-Jul-16 17:31N 52°05' E 005°05'0 0.0
2016-Jul-16 16:32N 52°05' E 005°05'0 0.0
2016-Jul-16 15:33N 52°05' E 005°05'0 0.0
2016-Jul-16 14:31N 52°05' E 005°05'0 0.0
2016-Jul-16 13:33N 52°05' E 005°05'0 0.0
2016-Jul-16 12:33N 52°05' E 005°05'0 0.0
2016-Jul-16 11:33N 52°05' E 005°05'0 0.0
2016-Jul-16 10:30N 52°05' E 005°05'0 0.0
2016-Jul-16 09:15N 52°05' E 005°05'0 0.0
2016-Jul-16 08:33N 52°05' E 005°05'0 0.0
2016-Jul-16 07:32N 52°05' E 005°05'0 0.0
2016-Jul-16 06:10N 52°05' E 005°05'0 0.0
2016-Jul-16 04:32N 52°05' E 005°05'0 0.0
2016-Jul-16 03:32N 52°05' E 005°05'0 0.0
2016-Jul-16 02:30N 52°05' E 005°05'0 0.0
2016-Jul-16 01:33N 52°05' E 005°05'0 0.0
2016-Jul-16 00:33N 52°05' E 005°05'0 0.0
2016-Jul-15 23:33N 52°05' E 005°05'0 0.0
2016-Jul-15 22:33N 52°05' E 005°05'0 0.0
2016-Jul-15 21:21N 52°05' E 005°05'0 0.0
2016-Jul-15 20:32N 52°05' E 005°05'0 0.0
2016-Jul-15 19:31N 52°05' E 005°05'0 0.0
2016-Jul-15 18:16N 52°05' E 005°05'0 0.0
2016-Jul-15 17:33N 52°05' E 005°05'0 0.0
2016-Jul-15 16:10N 52°05' E 005°05'0 0.0
2016-Jul-15 15:33N 52°05' E 005°05'0 0.1
2016-Jul-15 14:33N 52°05' E 005°05'0 0.0
2016-Jul-15 13:33N 52°05' E 005°05'0 0.0
2016-Jul-15 12:33N 52°05' E 005°05'0 0.0
2016-Jul-15 11:33N 52°05' E 005°05'0 0.0
2016-Jul-15 10:33N 52°05' E 005°05'0 0.0
2016-Jul-15 09:33N 52°04' E 005°05'0 0.0
2016-Jul-15 08:33N 52°04' E 005°05'0 0.2
2016-Jul-15 07:33N 52°04' E 005°05'0 0.0
2016-Jul-15 06:33N 52°04' E 005°05'0 0.0
2016-Jul-15 05:33N 52°04' E 005°05'0 0.0
2016-Jul-15 04:33N 52°04' E 005°05'0 0.0
2016-Jul-15 03:33N 52°04' E 005°05'0 0.0
2016-Jul-15 02:33N 52°04' E 005°05'0 0.0
2016-Jul-15 01:33N 52°04' E 005°05'0 0.0
2016-Jul-15 00:33N 52°04' E 005°05'0 0.0
2016-Jul-14 23:33N 52°04' E 005°05'0 0.0
2016-Jul-14 22:33N 52°04' E 005°05'5 4.7
2016-Jul-14 21:33N 52°01' E 005°10'6 6.3
2016-Jul-14 20:33N 51°58' E 005°19'12 5.3
2016-Jul-14 18:14N 51°54' E 005°38'6 9.2
2016-Jul-14 17:33N 51°53' E 005°48'18 7.5
2016-Jul-14 15:13N 51°49' E 006°16'13 7.6
2016-Jul-14 13:27N 51°40' E 006°31'7 6.1
2016-Jul-14 12:17N 51°35' E 006°39'5 7.0
2016-Jul-14 11:30N 51°30' E 006°43'13 6.3
2016-Jul-14 09:22N 51°16' E 006°42'4 5.0
2016-Jul-14 08:33N 51°12' E 006°44'19 1.7
2016-Jul-13 21:32N 50°56' E 006°58'111 6.6
2016-Jul-13 04:33N 49°21' E 008°29'7 7.3
2016-Jul-13 03:33N 49°15' E 008°24'10 9.7
2016-Jul-13 02:33N 49°05' E 008°21'  
Track history (hours):
 
Tides and Currents Weather Stations Pressure Air Temp Water Temp Dewpoint Dewpoint Depression Visibility Wind Speed Wind Dir Waves Ship Positions

Kvb Empire

Last reported at 2016-Jul-22 16:27 UTC. Time now 2016-Jul-23 09:20 UTC.
Position N 48°58' E 008°12'.

Length 183 m; draft 3.6 m.

Type: Ship. MMSI: 244670090.

Date/timePositionNaut miles runAvg speedWind from/ knotsBaromVisibWave heightAir tempDewpointWater temp
2016-Jul-22 16:27N 48°58' E 008°12'5 5.3
2016-Jul-22 15:33N 49°01' E 008°18'5 5.5
2016-Jul-22 14:33N 49°06' E 008°21'5 5.5
2016-Jul-22 13:33N 49°11' E 008°23'6 5.5
2016-Jul-22 12:33N 49°16' E 008°27'5 4.3
2016-Jul-22 11:29N 49°20' E 008°28'  
2016-Jul-20 06:33N 50°43' E 007°07'5 4.4
2016-Jul-20 05:30N 50°47' E 007°03'4 3.9
2016-Jul-20 04:33N 50°50' E 006°59'4 3.9
2016-Jul-20 03:25N 50°53' E 007°03'3 3.8
2016-Jul-20 02:32N 50°55' E 006°58'4 4.1
2016-Jul-20 01:33N 50°59' E 006°59'9 3.6
2016-Jul-19 23:04N 51°07' E 006°52'3 3.9
2016-Jul-19 22:25N 51°10' E 006°51'2 2.7
2016-Jul-19 21:33N 51°10' E 006°48'3 3.2
2016-Jul-19 20:33N 51°12' E 006°44'2 2.3
2016-Jul-19 19:33N 51°13' E 006°46'18 3.0
2016-Jul-19 13:29N 51°31' E 006°42'7 3.7
2016-Jul-19 11:33N 51°37' E 006°35'4 3.4
2016-Jul-19 10:32N 51°40' E 006°31'26 4.2
2016-Jul-19 04:27N 51°52' E 005°55'4 4.7
2016-Jul-19 03:32N 51°52' E 005°48'7 6.2
2016-Jul-19 02:24N 51°54' E 005°37'8 5.8
2016-Jul-19 01:06N 51°52' E 005°25'3 6.1
2016-Jul-19 00:33N 51°49' E 005°22'4 4.1
2016-Jul-18 23:33N 51°49' E 005°16'9 5.8
2016-Jul-18 22:04N 51°49' E 005°02'4 7.1
2016-Jul-18 21:33N 51°50' E 004°56'7 6.8
2016-Jul-18 20:33N 51°49' E 004°45'6 5.9
2016-Jul-18 19:33N 51°53' E 004°38'5 5.4
2016-Jul-18 18:33N 51°55' E 004°29'7 6.6
2016-Jul-18 17:33N 51°54' E 004°19'2 1.5
2016-Jul-18 16:33N 51°53' E 004°16'0 0.0
2016-Jul-18 15:33N 51°53' E 004°16'0 0.0
2016-Jul-18 14:33N 51°53' E 004°16'0 0.0
2016-Jul-18 13:33N 51°53' E 004°16'0 0.0
2016-Jul-18 12:33N 51°53' E 004°16'0 0.0
2016-Jul-18 11:33N 51°53' E 004°16'0 0.0
2016-Jul-18 10:33N 51°53' E 004°16'0 0.0
2016-Jul-18 09:33N 51°53' E 004°16'0 0.1
2016-Jul-18 08:33N 51°53' E 004°16'0 0.0
2016-Jul-18 07:33N 51°53' E 004°16'0 0.0
2016-Jul-18 06:33N 51°53' E 004°16'0 0.0
2016-Jul-18 05:33N 51°53' E 004°16'0 0.0
2016-Jul-18 04:33N 51°53' E 004°16'0 0.0
2016-Jul-18 03:33N 51°53' E 004°16'0 0.0
2016-Jul-18 02:33N 51°53' E 004°16'0 0.0
2016-Jul-18 01:33N 51°53' E 004°16'0 0.0
2016-Jul-18 00:33N 51°53' E 004°16'0 0.0
2016-Jul-17 23:33N 51°53' E 004°16'0 0.0
2016-Jul-17 22:33N 51°53' E 004°16'0 0.0
2016-Jul-17 21:33N 51°53' E 004°16'2 2.0
2016-Jul-17 20:33N 51°54' E 004°20'7 7.1
2016-Jul-17 19:33N 51°54' E 004°31'1 0.7
2016-Jul-17 18:33N 51°54' E 004°32'7 7.5
2016-Jul-17 17:33N 51°54' E 004°44'8 7.4
2016-Jul-17 16:32N 51°57' E 004°56'6 6.0
2016-Jul-17 15:33N 51°60' E 005°04'3 2.8
2016-Jul-17 14:33N 52°02' E 005°07'3 2.6
2016-Jul-17 13:33N 52°05' E 005°05'0 0.0
2016-Jul-17 12:32N 52°05' E 005°05'0 0.0
2016-Jul-17 11:32N 52°05' E 005°05'0 0.0
2016-Jul-17 10:31N 52°05' E 005°05'0 0.0
2016-Jul-17 09:33N 52°05' E 005°05'0 0.0
2016-Jul-17 08:24N 52°05' E 005°05'0 0.0
2016-Jul-17 06:32N 52°05' E 005°05'0 0.0
2016-Jul-17 04:33N 52°05' E 005°05'0 0.0
2016-Jul-17 03:33N 52°05' E 005°05'0 0.0
2016-Jul-17 02:33N 52°05' E 005°05'0 0.0
2016-Jul-17 01:33N 52°05' E 005°05'0 0.0
2016-Jul-17 00:33N 52°05' E 005°05'0 0.0
2016-Jul-16 23:33N 52°05' E 005°05'0 0.0
2016-Jul-16 22:33N 52°05' E 005°05'0 0.0
2016-Jul-16 21:32N 52°05' E 005°05'0 0.0
2016-Jul-16 20:32N 52°05' E 005°05'0 0.0
2016-Jul-16 19:32N 52°05' E 005°05'0 0.0
2016-Jul-16 18:33N 52°05' E 005°05'0 0.0
2016-Jul-16 17:31N 52°05' E 005°05'0 0.0
2016-Jul-16 16:32N 52°05' E 005°05'0 0.0
2016-Jul-16 15:33N 52°05' E 005°05'0 0.0
2016-Jul-16 14:31N 52°05' E 005°05'0 0.0
2016-Jul-16 13:33N 52°05' E 005°05'0 0.0
2016-Jul-16 12:33N 52°05' E 005°05'0 0.0
2016-Jul-16 11:33N 52°05' E 005°05'0 0.0
2016-Jul-16 10:30N 52°05' E 005°05'0 0.0
2016-Jul-16 09:15N 52°05' E 005°05'0 0.0
2016-Jul-16 08:33N 52°05' E 005°05'0 0.0
2016-Jul-16 07:32N 52°05' E 005°05'0 0.0
2016-Jul-16 06:10N 52°05' E 005°05'0 0.0
2016-Jul-16 04:32N 52°05' E 005°05'0 0.0
2016-Jul-16 03:32N 52°05' E 005°05'0 0.0
2016-Jul-16 02:30N 52°05' E 005°05'0 0.0
2016-Jul-16 01:33N 52°05' E 005°05'0 0.0
2016-Jul-16 00:33N 52°05' E 005°05'0 0.0
2016-Jul-15 23:33N 52°05' E 005°05'0 0.0
2016-Jul-15 22:33N 52°05' E 005°05'0 0.0
2016-Jul-15 21:21N 52°05' E 005°05'0 0.0
2016-Jul-15 20:32N 52°05' E 005°05'0 0.0
2016-Jul-15 19:31N 52°05' E 005°05'0 0.0
2016-Jul-15 18:16N 52°05' E 005°05'0 0.0
2016-Jul-15 17:33N 52°05' E 005°05'0 0.0
2016-Jul-15 16:10N 52°05' E 005°05'0 0.0
2016-Jul-15 15:33N 52°05' E 005°05'0 0.1
2016-Jul-15 14:33N 52°05' E 005°05'0 0.0
2016-Jul-15 13:33N 52°05' E 005°05'0 0.0
2016-Jul-15 12:33N 52°05' E 005°05'0 0.0
2016-Jul-15 11:33N 52°05' E 005°05'0 0.0
2016-Jul-15 10:33N 52°05' E 005°05'0 0.0
2016-Jul-15 09:33N 52°04' E 005°05'0 0.0
2016-Jul-15 08:33N 52°04' E 005°05'0 0.2
2016-Jul-15 07:33N 52°04' E 005°05'0 0.0
2016-Jul-15 06:33N 52°04' E 005°05'0 0.0
2016-Jul-15 05:33N 52°04' E 005°05'0 0.0
2016-Jul-15 04:33N 52°04' E 005°05'0 0.0
2016-Jul-15 03:33N 52°04' E 005°05'0 0.0
2016-Jul-15 02:33N 52°04' E 005°05'0 0.0
2016-Jul-15 01:33N 52°04' E 005°05'0 0.0
2016-Jul-15 00:33N 52°04' E 005°05'0 0.0
2016-Jul-14 23:33N 52°04' E 005°05'0 0.0
2016-Jul-14 22:33N 52°04' E 005°05'5 4.7
2016-Jul-14 21:33N 52°01' E 005°10'6 6.3
2016-Jul-14 20:33N 51°58' E 005°19'12 5.3
2016-Jul-14 18:14N 51°54' E 005°38'6 9.2
2016-Jul-14 17:33N 51°53' E 005°48'18 7.5
2016-Jul-14 15:13N 51°49' E 006°16'13 7.6
2016-Jul-14 13:27N 51°40' E 006°31'7 6.1
2016-Jul-14 12:17N 51°35' E 006°39'5 7.0
2016-Jul-14 11:30N 51°30' E 006°43'13 6.3
2016-Jul-14 09:22N 51°16' E 006°42'4 5.0
2016-Jul-14 08:33N 51°12' E 006°44'19 1.7
2016-Jul-13 21:32N 50°56' E 006°58'111 6.6
2016-Jul-13 04:33N 49°21' E 008°29'7 7.3
2016-Jul-13 03:33N 49°15' E 008°24'10 9.7
2016-Jul-13 02:33N 49°05' E 008°21'  

Dump ship's entire track history